createdAt,value
2019-02-27T00:00:35.725Z,3.80
2019-02-27T00:03:05.243Z,3.70
2019-02-27T00:05:33.783Z,3.70
2019-02-27T00:08:02.417Z,3.60
2019-02-27T00:10:30.883Z,3.70
2019-02-27T00:12:59.414Z,3.60
2019-02-27T00:15:27.995Z,3.60
2019-02-27T00:17:56.466Z,3.60
2019-02-27T00:20:24.935Z,3.60
2019-02-27T00:22:53.600Z,3.60
2019-02-27T00:25:22.058Z,3.60
2019-02-27T00:27:50.520Z,3.50
2019-02-27T00:30:19.251Z,3.50
2019-02-27T00:32:50.953Z,3.50
2019-02-27T00:35:18.187Z,3.50
2019-02-27T00:37:46.791Z,3.40
2019-02-27T00:40:15.243Z,3.40
2019-02-27T00:42:43.871Z,3.30
2019-02-27T00:45:12.382Z,3.30
2019-02-27T00:47:40.919Z,3.30
2019-02-27T00:50:10.126Z,3.30
2019-02-27T00:52:38.658Z,3.30
2019-02-27T00:55:08.663Z,3.20
2019-02-27T00:57:37.125Z,3.20
2019-02-27T01:00:16.563Z,3.20
2019-02-27T01:02:45.549Z,3.20
2019-02-27T01:05:14.464Z,3.10
2019-02-27T01:07:43.077Z,3.10
2019-02-27T01:10:12.978Z,3.10
2019-02-27T01:12:41.629Z,3.10
2019-02-27T01:15:12.428Z,3.10
2019-02-27T01:17:41.218Z,3.10
2019-02-27T01:20:14.463Z,3.10
2019-02-27T01:22:43.601Z,3.00
2019-02-27T01:25:12.657Z,3.00
2019-02-27T01:27:41.126Z,3.00
2019-02-27T01:30:17.062Z,3.00
2019-02-27T01:32:45.658Z,2.90
2019-02-27T01:35:17.657Z,3.00
2019-02-27T01:37:44.903Z,2.90
2019-02-27T01:40:17.407Z,2.90
2019-02-27T01:42:45.565Z,2.90
2019-02-27T01:45:20.669Z,2.90
2019-02-27T01:47:46.158Z,2.80
2019-02-27T01:50:26.494Z,3.00
2019-02-27T01:52:54.955Z,3.10
2019-02-27T01:55:42.814Z,3.10
2019-02-27T01:58:11.270Z,3.00
2019-02-27T02:00:40.070Z,3.10
2019-02-27T02:03:11.170Z,3.10
2019-02-27T02:05:38.930Z,3.00
2019-02-27T02:08:10.885Z,2.90
2019-02-27T02:10:38.637Z,2.80
2019-02-27T02:13:14.782Z,2.80
2019-02-27T02:16:02.834Z,2.70
2019-02-27T02:18:49.503Z,2.70
2019-02-27T02:21:32.092Z,2.60
2019-02-27T02:24:11.817Z,2.50
2019-02-27T02:27:01.528Z,2.40
2019-02-27T02:29:55.769Z,2.40
2019-02-27T02:32:52.040Z,2.30
2019-02-27T02:35:30.611Z,2.30
2019-02-27T02:38:11.999Z,2.20
2019-02-27T02:40:53.256Z,2.20
2019-02-27T02:43:27.747Z,2.30
2019-02-27T02:46:11.517Z,2.30
2019-02-27T02:48:57.731Z,2.30
2019-02-27T02:51:34.895Z,2.30
2019-02-27T02:54:38.294Z,2.40
2019-02-27T02:57:15.553Z,2.40
2019-02-27T02:59:59.448Z,2.40
2019-02-27T03:02:45.266Z,2.40
2019-02-27T03:05:34.833Z,2.30
2019-02-27T03:08:55.052Z,2.30
2019-02-27T03:11:35.231Z,2.30
2019-02-27T03:14:17.667Z,2.30
2019-02-27T03:17:05.473Z,2.20
2019-02-27T03:19:45.753Z,2.20
2019-02-27T03:22:40.349Z,2.20
2019-02-27T03:25:24.849Z,2.10
2019-02-27T03:28:17.420Z,2.10
2019-02-27T03:30:51.589Z,2.00
2019-02-27T03:34:05.707Z,1.90
2019-02-27T03:37:04.767Z,2.00
2019-02-27T03:39:54.239Z,2.00
2019-02-27T03:42:37.566Z,1.90
2019-02-27T03:45:44.967Z,1.90
2019-02-27T03:48:30.834Z,1.90
2019-02-27T03:51:08.371Z,1.80
2019-02-27T03:53:46.604Z,1.80
2019-02-27T03:56:21.433Z,1.70
2019-02-27T03:59:08.131Z,1.80
2019-02-27T04:01:42.709Z,1.70
2019-02-27T04:04:32.216Z,1.50
2019-02-27T04:07:03.783Z,1.50
2019-02-27T04:09:32.276Z,1.50
2019-02-27T04:12:00.869Z,1.40
2019-02-27T04:14:31.736Z,1.40
2019-02-27T04:17:05.393Z,1.50
2019-02-27T04:19:31.250Z,1.50
2019-02-27T04:22:19.226Z,1.40
2019-02-27T04:24:47.761Z,1.40
2019-02-27T04:27:20.074Z,1.50
2019-02-27T04:29:46.457Z,1.40
2019-02-27T04:32:14.918Z,1.40
2019-02-27T04:34:43.398Z,1.40
2019-02-27T04:37:11.997Z,1.30
2019-02-27T04:39:40.458Z,1.30
2019-02-27T04:42:08.923Z,1.30
2019-02-27T04:44:38.889Z,1.20
2019-02-27T04:47:07.581Z,1.30
2019-02-27T04:49:37.804Z,1.20
2019-02-27T04:52:06.286Z,1.20
2019-02-27T04:54:35.107Z,1.30
2019-02-27T04:57:03.660Z,1.20
2019-02-27T04:59:32.140Z,1.20
2019-02-27T05:02:00.605Z,1.20
2019-02-27T05:04:29.113Z,1.20
2019-02-27T05:06:57.656Z,1.20
2019-02-27T05:09:26.121Z,1.20
2019-02-27T05:11:54.624Z,1.20
2019-02-27T05:14:24.903Z,1.10
2019-02-27T05:16:53.301Z,1.10
2019-02-27T05:19:21.759Z,1.10
2019-02-27T05:21:52.579Z,1.10
2019-02-27T05:24:20.461Z,1.00
2019-02-27T05:26:48.919Z,1.00
2019-02-27T05:29:17.422Z,1.10
2019-02-27T05:31:45.956Z,1.00
2019-02-27T05:34:14.417Z,1.00
2019-02-27T05:36:42.928Z,1.10
2019-02-27T05:39:11.383Z,1.10
2019-02-27T05:41:39.857Z,1.10
2019-02-27T05:44:08.350Z,1.10
2019-02-27T05:46:38.299Z,1.10
2019-02-27T05:49:06.989Z,1.10
2019-02-27T05:51:35.563Z,1.10
2019-02-27T05:54:04.019Z,1.10
2019-02-27T05:56:32.558Z,1.10
2019-02-27T05:59:01.162Z,1.20
2019-02-27T06:01:29.615Z,1.20
2019-02-27T06:03:58.095Z,1.20
2019-02-27T06:06:26.612Z,1.20
2019-02-27T06:08:55.084Z,1.20
2019-02-27T06:11:23.547Z,1.10
2019-02-27T06:13:52.043Z,1.10
2019-02-27T06:16:20.568Z,1.10
2019-02-27T06:18:49.104Z,1.10
2019-02-27T06:21:17.631Z,1.10
2019-02-27T06:23:46.180Z,1.10
2019-02-27T06:26:14.703Z,1.10
2019-02-27T06:28:43.188Z,1.10
2019-02-27T06:31:11.659Z,1.20
2019-02-27T06:33:40.111Z,1.30
2019-02-27T06:36:08.720Z,1.30
2019-02-27T06:38:37.183Z,1.30
2019-02-27T06:41:25.022Z,1.30
2019-02-27T06:43:53.562Z,1.30
2019-02-27T06:46:22.097Z,1.30
2019-02-27T06:48:50.630Z,1.30
2019-02-27T06:51:19.240Z,1.30
2019-02-27T06:53:47.710Z,1.30
2019-02-27T06:56:16.209Z,1.40
2019-02-27T06:58:44.762Z,1.40
2019-02-27T07:01:13.336Z,1.70
2019-02-27T07:03:41.871Z,1.80
2019-02-27T07:06:10.320Z,1.70
2019-02-27T07:08:38.792Z,1.80
2019-02-27T07:11:10.633Z,3.10
2019-02-27T07:13:37.744Z,2.70
2019-02-27T07:16:06.278Z,2.50
2019-02-27T07:18:36.482Z,2.30
2019-02-27T07:21:05.248Z,2.30
2019-02-27T07:23:35.199Z,2.40
2019-02-27T07:26:04.168Z,2.30
2019-02-27T07:28:32.709Z,2.50
2019-02-27T07:31:01.247Z,2.50
2019-02-27T07:33:29.745Z,2.60
2019-02-27T07:35:58.232Z,2.70
2019-02-27T07:38:26.742Z,2.80
2019-02-27T07:40:55.252Z,2.90
2019-02-27T07:43:23.789Z,3.00
2019-02-27T07:45:54.212Z,3.10
2019-02-27T07:48:22.475Z,3.10
2019-02-27T07:50:51.010Z,3.20
2019-02-27T07:53:19.464Z,3.20
2019-02-27T07:55:48.269Z,3.30
2019-02-27T07:58:16.784Z,3.40
2019-02-27T08:00:47.193Z,3.40
2019-02-27T08:03:15.455Z,3.50
2019-02-27T08:05:43.921Z,3.60
2019-02-27T08:08:12.371Z,3.70
2019-02-27T08:10:40.881Z,3.70
2019-02-27T08:13:09.416Z,3.80
2019-02-27T08:15:37.885Z,3.90
2019-02-27T08:18:06.519Z,3.90
2019-02-27T08:20:35.076Z,4.00
2019-02-27T08:23:03.530Z,4.10
2019-02-27T08:25:32.113Z,4.20
2019-02-27T08:28:00.589Z,4.20
2019-02-27T08:30:29.576Z,4.30
2019-02-27T08:32:58.079Z,4.40
2019-02-27T08:35:26.535Z,4.40
2019-02-27T08:38:02.103Z,4.40
2019-02-27T08:40:25.395Z,4.50
2019-02-27T08:42:54.028Z,4.60
2019-02-27T08:45:26.651Z,4.60
2019-02-27T08:47:53.222Z,4.60
2019-02-27T08:50:23.092Z,4.70
2019-02-27T08:52:51.931Z,4.80
2019-02-27T08:55:42.936Z,4.90
2019-02-27T08:58:11.387Z,5.00
2019-02-27T09:00:39.905Z,5.00
2019-02-27T09:03:08.559Z,5.10
2019-02-27T09:05:37.012Z,5.10
2019-02-27T09:08:07.380Z,5.10
2019-02-27T09:10:35.767Z,5.20
2019-02-27T09:13:05.867Z,5.30
2019-02-27T09:15:34.640Z,5.40
2019-02-27T09:18:03.220Z,5.40
2019-02-27T09:20:31.761Z,5.40
2019-02-27T09:23:00.279Z,5.50
2019-02-27T09:25:28.874Z,5.60
2019-02-27T09:27:57.421Z,5.60
2019-02-27T09:30:29.337Z,5.70
2019-02-27T09:32:56.918Z,5.80
2019-02-27T09:35:25.374Z,5.80
2019-02-27T09:37:53.904Z,5.80
2019-02-27T09:40:41.839Z,5.90
2019-02-27T09:43:11.681Z,6.00
2019-02-27T09:45:40.405Z,6.00
2019-02-27T09:48:09.192Z,6.10
2019-02-27T09:50:48.143Z,6.10
2019-02-27T09:53:15.668Z,6.20
2019-02-27T09:55:44.142Z,6.30
2019-02-27T09:58:12.939Z,6.40
2019-02-27T10:00:59.154Z,6.50
2019-02-27T10:03:25.949Z,6.60
2019-02-27T10:05:54.612Z,6.60
2019-02-27T10:08:25.258Z,6.70
2019-02-27T10:10:53.289Z,6.90
2019-02-27T10:13:21.744Z,7.00
2019-02-27T10:15:50.251Z,7.00
2019-02-27T10:18:21.856Z,7.00
2019-02-27T10:20:49.152Z,7.10
2019-02-27T10:23:17.644Z,7.20
2019-02-27T10:25:46.110Z,7.20
2019-02-27T10:28:14.639Z,7.30
2019-02-27T10:30:43.217Z,7.40
2019-02-27T10:33:11.911Z,7.40
2019-02-27T10:35:40.655Z,7.50
2019-02-27T10:38:09.244Z,7.60
2019-02-27T10:40:37.857Z,7.70
2019-02-27T10:43:06.460Z,7.80
2019-02-27T10:45:35.077Z,7.90
2019-02-27T10:48:03.553Z,7.90
2019-02-27T10:50:32.012Z,8.00
2019-02-27T10:53:00.620Z,8.10
2019-02-27T10:55:29.235Z,8.10
2019-02-27T10:57:57.786Z,8.20
2019-02-27T11:00:32.770Z,8.20
2019-02-27T11:03:01.881Z,8.30
2019-02-27T11:05:33.135Z,8.40
2019-02-27T11:08:01.749Z,8.40
2019-02-27T11:10:30.449Z,8.50
2019-02-27T11:12:59.149Z,8.60
2019-02-27T11:15:27.714Z,8.80
2019-02-27T11:17:56.256Z,8.90
2019-02-27T11:20:44.205Z,9.00
2019-02-27T11:23:12.716Z,9.10
2019-02-27T11:25:41.180Z,9.20
2019-02-27T11:28:09.934Z,9.30
2019-02-27T11:30:40.915Z,9.40
2019-02-27T11:33:09.562Z,9.50
2019-02-27T11:35:38.258Z,9.50
2019-02-27T11:38:07.054Z,9.60
2019-02-27T11:40:35.638Z,9.90
2019-02-27T11:43:06.972Z,10.00
2019-02-27T11:45:34.705Z,10.00
2019-02-27T11:48:03.357Z,10.10
2019-02-27T11:50:32.162Z,10.10
2019-02-27T11:53:02.789Z,10.30
2019-02-27T11:55:30.987Z,10.40
2019-02-27T11:58:04.407Z,10.40
2019-02-27T12:00:31.324Z,10.50
2019-02-27T12:03:00.144Z,10.60
2019-02-27T12:05:33.869Z,10.70
2019-02-27T12:07:59.504Z,10.70
2019-02-27T12:10:31.628Z,10.80
2019-02-27T12:13:01.412Z,10.90
2019-02-27T12:15:30.339Z,11.00
2019-02-27T12:18:00.600Z,11.10
2019-02-27T12:20:29.250Z,11.10
2019-02-27T12:22:57.786Z,11.20
2019-02-27T12:25:28.992Z,11.30
2019-02-27T12:27:57.003Z,11.20
2019-02-27T12:30:30.202Z,11.20
2019-02-27T12:32:59.007Z,11.20
2019-02-27T12:35:29.943Z,11.20
2019-02-27T12:37:58.525Z,11.10
2019-02-27T12:40:27.263Z,11.20
2019-02-27T12:42:55.938Z,11.20
2019-02-27T12:45:27.784Z,11.20
2019-02-27T12:47:57.079Z,11.30
2019-02-27T12:50:31.150Z,11.30
2019-02-27T12:52:59.006Z,11.50
2019-02-27T12:55:27.917Z,11.70
2019-02-27T12:57:56.546Z,11.70
2019-02-27T13:00:29.893Z,11.80
2019-02-27T13:02:59.081Z,11.90
2019-02-27T13:05:28.836Z,11.90
2019-02-27T13:07:57.623Z,12.00
2019-02-27T13:10:32.997Z,12.00
2019-02-27T13:12:59.217Z,12.00
2019-02-27T13:15:28.663Z,12.00
2019-02-27T13:17:58.005Z,12.00
2019-02-27T13:20:28.939Z,12.00
2019-02-27T13:22:57.492Z,12.00
2019-02-27T13:25:26.373Z,12.00
2019-02-27T13:27:54.896Z,12.10
2019-02-27T13:30:25.561Z,12.10
2019-02-27T13:32:54.244Z,12.10
2019-02-27T13:35:23.860Z,12.20
2019-02-27T13:37:52.674Z,12.20
2019-02-27T13:40:26.578Z,12.20
2019-02-27T13:42:55.023Z,12.10
2019-02-27T13:45:26.583Z,12.10
2019-02-27T13:47:55.306Z,12.10
2019-02-27T13:50:26.680Z,12.20
2019-02-27T13:52:54.580Z,12.10
2019-02-27T13:55:24.031Z,12.20
2019-02-27T13:57:52.637Z,12.10
2019-02-27T14:00:29.393Z,12.10
2019-02-27T14:02:57.994Z,12.10
2019-02-27T14:05:26.710Z,12.10
2019-02-27T14:07:58.518Z,12.10
2019-02-27T14:10:28.461Z,12.00
2019-02-27T14:12:57.165Z,11.90
2019-02-27T14:15:27.241Z,11.90
2019-02-27T14:17:56.281Z,11.90
2019-02-27T14:20:26.911Z,11.80
2019-02-27T14:22:55.278Z,11.80
2019-02-27T14:25:31.855Z,11.80
2019-02-27T14:27:56.548Z,11.80
2019-02-27T14:30:35.546Z,11.80
2019-02-27T14:33:04.059Z,11.80
2019-02-27T14:35:36.226Z,11.70
2019-02-27T14:38:03.030Z,11.70
2019-02-27T14:40:31.551Z,11.70
2019-02-27T14:43:00.086Z,11.70
2019-02-27T14:45:28.617Z,11.60
2019-02-27T14:47:57.073Z,11.60
2019-02-27T14:50:26.073Z,11.50
2019-02-27T14:52:54.747Z,11.50
2019-02-27T14:55:23.485Z,11.50
2019-02-27T14:57:51.947Z,11.50
2019-02-27T15:00:34.185Z,11.40
2019-02-27T15:03:02.734Z,11.40
2019-02-27T15:05:31.333Z,11.40
2019-02-27T15:08:00.010Z,11.30
2019-02-27T15:10:28.544Z,11.20
2019-02-27T15:12:57.088Z,11.30
2019-02-27T15:15:28.100Z,11.20
2019-02-27T15:17:56.631Z,11.10
2019-02-27T15:20:27.034Z,11.10
2019-02-27T15:22:55.897Z,11.00
2019-02-27T15:25:24.504Z,10.90
2019-02-27T15:27:53.045Z,10.80
2019-02-27T15:30:32.310Z,10.80
2019-02-27T15:33:03.549Z,10.70
2019-02-27T15:35:31.049Z,10.60
2019-02-27T15:37:59.702Z,10.60
2019-02-27T15:40:30.187Z,10.50
2019-02-27T15:42:59.376Z,10.50
2019-02-27T15:45:29.005Z,10.40
2019-02-27T15:47:57.758Z,10.40
2019-02-27T15:50:31.688Z,10.40
2019-02-27T15:53:00.386Z,10.30
2019-02-27T15:55:42.322Z,10.20
2019-02-27T15:58:10.966Z,10.10
2019-02-27T16:00:39.502Z,10.00
2019-02-27T16:03:10.689Z,9.90
2019-02-27T16:05:40.088Z,9.80
2019-02-27T16:08:08.557Z,9.80
2019-02-27T16:10:42.621Z,9.70
2019-02-27T16:13:07.451Z,9.60
2019-02-27T16:15:35.909Z,9.50
2019-02-27T16:18:05.288Z,9.40
2019-02-27T16:20:34.017Z,9.30
2019-02-27T16:23:05.056Z,9.20
2019-02-27T16:25:32.664Z,9.10
2019-02-27T16:28:01.172Z,9.00
2019-02-27T16:30:33.001Z,8.90
2019-02-27T16:33:01.735Z,8.90
2019-02-27T16:35:30.372Z,8.80
2019-02-27T16:37:58.902Z,8.70
2019-02-27T16:40:28.716Z,8.70
2019-02-27T16:42:57.397Z,8.60
2019-02-27T16:45:37.518Z,8.60
2019-02-27T16:48:27.197Z,8.60
2019-02-27T16:50:57.353Z,8.60
2019-02-27T16:53:25.925Z,8.50
2019-02-27T16:55:54.492Z,8.50
2019-02-27T16:58:23.031Z,8.40
2019-02-27T17:00:54.412Z,8.30
2019-02-27T17:03:22.200Z,8.30
2019-02-27T17:05:50.663Z,8.20
2019-02-27T17:08:19.200Z,8.10
2019-02-27T17:10:51.698Z,8.10
2019-02-27T17:13:18.034Z,8.00
2019-02-27T17:15:46.554Z,7.90
2019-02-27T17:18:15.233Z,7.80
2019-02-27T17:20:46.574Z,7.70
2019-02-27T17:23:13.901Z,7.50
2019-02-27T17:25:42.476Z,7.40
2019-02-27T17:28:10.958Z,7.30
2019-02-27T17:30:39.494Z,7.20
2019-02-27T17:33:08.019Z,7.10
2019-02-27T17:35:36.499Z,7.10
2019-02-27T17:38:05.204Z,7.00
2019-02-27T17:40:36.897Z,6.90
2019-02-27T17:43:06.522Z,6.90
2019-02-27T17:45:54.529Z,6.90
2019-02-27T17:48:23.107Z,6.90
2019-02-27T17:50:51.697Z,7.00
2019-02-27T17:53:20.470Z,7.00
2019-02-27T17:55:50.465Z,7.00
2019-02-27T17:58:19.158Z,7.00
2019-02-27T18:00:52.056Z,7.10
2019-02-27T18:03:20.535Z,7.10
2019-02-27T18:05:49.088Z,7.00
2019-02-27T18:08:17.576Z,6.90
2019-02-27T18:10:46.049Z,6.80
2019-02-27T18:13:14.506Z,6.80
2019-02-27T18:15:43.100Z,6.70
2019-02-27T18:18:11.795Z,6.70
2019-02-27T18:20:40.266Z,6.60
2019-02-27T18:23:08.852Z,6.70
2019-02-27T18:25:41.179Z,6.70
2019-02-27T18:28:07.572Z,6.70
2019-02-27T18:30:36.232Z,6.70
2019-02-27T18:33:04.845Z,6.70
2019-02-27T18:35:33.393Z,6.80
2019-02-27T18:38:02.001Z,6.80
2019-02-27T18:40:30.668Z,6.90
2019-02-27T18:42:59.174Z,6.90
2019-02-27T18:45:28.997Z,6.90
2019-02-27T18:47:58.745Z,6.80
2019-02-27T18:50:27.569Z,6.80
2019-02-27T18:52:56.206Z,6.80
2019-02-27T18:55:29.278Z,6.80
2019-02-27T18:57:55.020Z,6.70
2019-02-27T19:00:25.329Z,6.70
2019-02-27T19:03:02.133Z,6.60
2019-02-27T19:05:30.633Z,6.60
2019-02-27T19:07:59.243Z,6.60
2019-02-27T19:10:27.758Z,6.50
2019-02-27T19:12:56.352Z,6.50
2019-02-27T19:15:26.421Z,6.50
2019-02-27T19:17:55.341Z,6.50
2019-02-27T19:20:44.109Z,6.50
2019-02-27T19:23:17.181Z,6.50
2019-02-27T19:25:43.186Z,6.40
2019-02-27T19:28:12.303Z,6.40
2019-02-27T19:30:41.619Z,6.40
2019-02-27T19:33:11.284Z,6.40
2019-02-27T19:35:39.781Z,6.40
2019-02-27T19:38:12.544Z,6.40
2019-02-27T19:40:38.698Z,6.30
2019-02-27T19:43:07.280Z,6.30
2019-02-27T19:45:36.863Z,6.20
2019-02-27T19:48:05.737Z,6.20
2019-02-27T19:50:35.320Z,6.30
2019-02-27T19:53:06.815Z,6.30
2019-02-27T19:55:34.563Z,6.20
2019-02-27T19:58:03.165Z,6.20
2019-02-27T20:00:34.897Z,6.20
2019-02-27T20:03:03.073Z,6.20
2019-02-27T20:05:31.865Z,6.10
2019-02-27T20:08:02.400Z,6.10
2019-02-27T20:10:33.152Z,6.10
2019-02-27T20:13:00.895Z,6.10
2019-02-27T20:15:29.511Z,6.10
2019-02-27T20:17:58.048Z,6.00
2019-02-27T20:20:26.765Z,6.00
2019-02-27T20:22:55.611Z,6.00
2019-02-27T20:25:29.618Z,5.90
2019-02-27T20:27:58.890Z,5.90
2019-02-27T20:30:27.748Z,5.90
2019-02-27T20:32:56.412Z,5.90
2019-02-27T20:35:24.952Z,5.80
2019-02-27T20:37:53.678Z,5.90
2019-02-27T20:40:22.506Z,5.90
2019-02-27T20:42:54.966Z,5.90
2019-02-27T20:45:22.738Z,5.90
2019-02-27T20:47:57.764Z,5.90
2019-02-27T20:50:41.547Z,5.90
2019-02-27T20:53:12.283Z,5.80
2019-02-27T20:55:40.850Z,5.80
2019-02-27T20:58:09.535Z,5.80
2019-02-27T21:00:38.102Z,5.70
2019-02-27T21:03:06.728Z,5.70
2019-02-27T21:05:35.214Z,5.70
2019-02-27T21:08:04.036Z,5.60
2019-02-27T21:10:36.029Z,5.60
2019-02-27T21:13:04.849Z,5.60
2019-02-27T21:15:34.217Z,5.60
2019-02-27T21:18:02.962Z,5.60
2019-02-27T21:20:33.127Z,5.60
2019-02-27T21:23:01.743Z,5.60
2019-02-27T21:25:30.303Z,5.50
2019-02-27T21:27:58.832Z,5.50
2019-02-27T21:30:27.709Z,5.50
2019-02-27T21:32:56.312Z,5.40
2019-02-27T21:35:28.738Z,5.40
2019-02-27T21:37:55.390Z,5.40
2019-02-27T21:40:24.140Z,5.40
2019-02-27T21:42:52.607Z,5.40
2019-02-27T21:45:24.871Z,5.50
2019-02-27T21:47:53.556Z,5.50
2019-02-27T21:50:26.605Z,5.50
2019-02-27T21:52:55.848Z,5.50
2019-02-27T21:55:25.249Z,5.50
2019-02-27T21:57:53.788Z,5.50
2019-02-27T22:00:26.951Z,5.60
2019-02-27T22:02:56.847Z,5.70
2019-02-27T22:05:25.582Z,5.70
2019-02-27T22:07:54.552Z,5.70
2019-02-27T22:10:23.084Z,5.80
2019-02-27T22:12:51.616Z,5.90
2019-02-27T22:15:30.140Z,5.90
2019-02-27T22:17:58.767Z,6.00
2019-02-27T22:20:27.369Z,5.90
2019-02-27T22:22:55.878Z,6.00
2019-02-27T22:25:30.179Z,5.90
2019-02-27T22:27:54.832Z,5.90
2019-02-27T22:30:23.781Z,5.90
2019-02-27T22:32:52.667Z,5.80
2019-02-27T22:35:21.293Z,5.80
2019-02-27T22:37:52.427Z,5.70
2019-02-27T22:40:44.160Z,5.70
2019-02-27T22:43:12.682Z,5.60
2019-02-27T22:45:43.983Z,5.50
2019-02-27T22:48:11.352Z,5.50
2019-02-27T22:50:41.255Z,5.40
2019-02-27T22:53:10.201Z,5.40
2019-02-27T22:55:42.252Z,5.40
2019-02-27T22:58:09.028Z,5.30
2019-02-27T23:00:56.101Z,5.20
2019-02-27T23:03:35.878Z,5.20
2019-02-27T23:06:05.318Z,5.10
2019-02-27T23:08:34.150Z,5.10
2019-02-27T23:11:03.761Z,5.00
2019-02-27T23:13:32.482Z,5.00
2019-02-27T23:16:01.129Z,5.00
2019-02-27T23:18:30.600Z,5.00
2019-02-27T23:20:59.115Z,5.00
2019-02-27T23:23:27.636Z,5.00
2019-02-27T23:25:56.308Z,5.00
2019-02-27T23:28:24.768Z,5.00
2019-02-27T23:30:53.639Z,5.00
2019-02-27T23:33:24.539Z,5.00
2019-02-27T23:35:52.432Z,4.90
2019-02-27T23:38:20.895Z,4.90
2019-02-27T23:40:50.131Z,4.80
2019-02-27T23:43:19.736Z,4.80
2019-02-27T23:45:48.393Z,4.80
2019-02-27T23:48:16.958Z,4.80
2019-02-27T23:50:45.415Z,4.70
2019-02-27T23:53:15.189Z,4.70
2019-02-27T23:55:44.643Z,4.70
2019-02-27T23:58:13.996Z,4.60
